Decoded Metar for EPWR (WROCLAW in POLAND) (IATA:WRO) | Meteo·Mobile Aviation Weather
aviador You're here:

EPWR Decoded Metar

WROCLAW in POLAND
Report Time2020-01-29 15:30:00
UTC Time2020-01-29 15:44:47
Flight Rules vfr VFR
Wind270° at 14 kt
W.Decomp.*RWY 29: 12.9 kt HW 5.5 kt LCW
Visibility9999 m
Phenomena:N/A
Clouds:N/A
Expected CloudBase > 2,400 ft AGL from Temp-Dew spread
CeilingNone
Temp05°C (ISA -9)
Dew Point-1°C (66% RH)
AAT-2.1°C
QNH1004 hPa
Density Alt-328 ft
Elevation397 ft
Report Wrong Elevation
Raw Report
EPWR 291530Z 27014KT CAVOK 05/M01 Q1004=

Extra information for EPWR:More info

Metar Taf Metar & Taf Last 4 Metars F.Rules Stats Wind Profile Meteogram Temp Stats Airport Information Weather charts Add Link Nearby VenuesMetar ALERT Operation Metar Decoded Social comments